createdAt,value
2018-08-22T00:02:20.336Z,5.20
2018-08-22T00:04:47.242Z,5.10
2018-08-22T00:07:14.716Z,5.10
2018-08-22T00:09:41.433Z,5.00
2018-08-22T00:12:09.016Z,5.00
2018-08-22T00:14:35.758Z,5.00
2018-08-22T00:17:02.467Z,5.00
2018-08-22T00:19:29.238Z,4.90
2018-08-22T00:21:56.081Z,4.90
2018-08-22T00:24:23.030Z,4.90
2018-08-22T00:26:49.681Z,4.80
2018-08-22T00:29:16.496Z,4.80
2018-08-22T00:31:43.247Z,4.80
2018-08-22T00:34:09.990Z,4.80
2018-08-22T00:36:36.699Z,4.80
2018-08-22T00:39:04.219Z,4.80
2018-08-22T00:41:30.896Z,4.70
2018-08-22T00:43:58.383Z,4.80
2018-08-22T00:46:25.946Z,4.70
2018-08-22T00:48:52.808Z,4.70
2018-08-22T00:51:19.556Z,4.60
2018-08-22T00:53:46.970Z,4.60
2018-08-22T00:56:14.337Z,4.60
2018-08-22T00:58:41.064Z,4.50
2018-08-22T01:01:08.453Z,4.60
2018-08-22T01:03:35.125Z,4.50
2018-08-22T01:06:01.913Z,4.50
2018-08-22T01:08:28.548Z,4.50
2018-08-22T01:10:55.291Z,4.40
2018-08-22T01:13:22.013Z,4.40
2018-08-22T01:15:49.390Z,4.40
2018-08-22T01:18:16.126Z,4.40
2018-08-22T01:20:42.946Z,4.50
2018-08-22T01:23:10.404Z,4.50
2018-08-22T01:25:37.880Z,4.60
2018-08-22T01:28:04.601Z,4.50
2018-08-22T01:30:32.073Z,4.50
2018-08-22T01:32:58.822Z,4.40
2018-08-22T01:35:25.445Z,4.40
2018-08-22T01:37:53.121Z,4.40
2018-08-22T01:40:19.774Z,4.40
2018-08-22T01:42:46.424Z,4.30
2018-08-22T01:45:13.119Z,4.30
2018-08-22T01:47:40.519Z,4.20
2018-08-22T01:50:07.330Z,4.10
2018-08-22T01:52:33.997Z,4.10
2018-08-22T01:55:00.669Z,4.00
2018-08-22T01:57:27.332Z,4.00
2018-08-22T01:59:54.713Z,4.00
2018-08-22T02:02:21.378Z,4.00
2018-08-22T02:04:48.046Z,4.00
2018-08-22T02:07:14.753Z,4.00
2018-08-22T02:09:41.461Z,4.00
2018-08-22T02:12:08.118Z,4.00
2018-08-22T02:14:34.754Z,4.10
2018-08-22T02:17:01.481Z,4.00
2018-08-22T02:19:28.222Z,4.00
2018-08-22T02:21:54.955Z,3.90
2018-08-22T02:24:21.701Z,3.80
2018-08-22T02:26:48.366Z,3.80
2018-08-22T02:29:15.035Z,3.70
2018-08-22T02:31:41.684Z,3.80
2018-08-22T02:34:08.340Z,3.80
2018-08-22T02:36:35.913Z,3.80
2018-08-22T02:39:02.652Z,3.80
2018-08-22T02:41:29.496Z,3.80
2018-08-22T02:43:56.209Z,3.80
2018-08-22T02:46:23.698Z,3.80
2018-08-22T02:48:50.475Z,3.80
2018-08-22T02:51:17.118Z,3.80
2018-08-22T02:53:43.766Z,3.80
2018-08-22T02:56:10.460Z,3.90
2018-08-22T02:58:37.083Z,3.90
2018-08-22T03:01:03.712Z,3.80
2018-08-22T03:03:31.134Z,3.80
2018-08-22T03:05:57.780Z,3.80
2018-08-22T03:08:24.603Z,3.80
2018-08-22T03:10:51.256Z,3.80
2018-08-22T03:13:17.934Z,3.70
2018-08-22T03:15:44.662Z,3.80
2018-08-22T03:18:12.048Z,3.80
2018-08-22T03:20:38.770Z,3.70
2018-08-22T03:23:05.413Z,3.70
2018-08-22T03:25:32.151Z,3.70
2018-08-22T03:27:59.066Z,3.80
2018-08-22T03:30:26.657Z,3.70
2018-08-22T03:32:53.499Z,3.60
2018-08-22T03:35:20.316Z,3.60
2018-08-22T03:37:47.083Z,3.70
2018-08-22T03:40:13.825Z,3.80
2018-08-22T03:42:40.564Z,3.80
2018-08-22T03:45:07.286Z,3.80
2018-08-22T03:47:34.739Z,3.90
2018-08-22T03:50:01.504Z,3.90
2018-08-22T03:52:28.148Z,3.90
2018-08-22T03:54:54.841Z,3.90
2018-08-22T03:57:21.526Z,4.00
2018-08-22T03:59:48.256Z,4.10
2018-08-22T04:02:15.100Z,4.10
2018-08-22T04:04:41.845Z,4.10
2018-08-22T04:07:08.579Z,4.10
2018-08-22T04:09:35.397Z,4.20
2018-08-22T04:12:02.859Z,4.30
2018-08-22T04:14:30.330Z,4.30
2018-08-22T04:16:56.982Z,4.20
2018-08-22T04:19:23.670Z,4.20
2018-08-22T04:21:50.482Z,4.20
2018-08-22T04:24:17.129Z,4.30
2018-08-22T04:26:43.783Z,4.50
2018-08-22T04:29:10.564Z,4.60
2018-08-22T04:31:37.238Z,4.80
2018-08-22T04:34:03.933Z,4.90
2018-08-22T04:36:31.387Z,5.20
2018-08-22T04:38:58.794Z,5.30
2018-08-22T04:41:26.186Z,5.40
2018-08-22T04:43:53.768Z,5.50
2018-08-22T04:46:21.147Z,5.60
2018-08-22T04:48:47.824Z,5.60
2018-08-22T04:51:14.540Z,5.70
2018-08-22T04:53:41.217Z,5.80
2018-08-22T04:56:07.996Z,6.00
2018-08-22T04:58:34.838Z,6.10
2018-08-22T05:01:01.477Z,6.10
2018-08-22T05:03:28.146Z,6.30
2018-08-22T05:05:54.971Z,6.40
2018-08-22T05:08:21.638Z,6.70
2018-08-22T05:10:48.332Z,7.00
2018-08-22T05:13:15.122Z,7.40
2018-08-22T05:15:41.841Z,7.90
2018-08-22T05:18:09.220Z,9.30
2018-08-22T05:20:36.242Z,11.70
2018-08-22T05:23:03.136Z,13.80
2018-08-22T05:25:29.894Z,15.50
2018-08-22T05:27:57.272Z,18.20
2018-08-22T05:30:24.545Z,18.20
2018-08-22T05:32:52.191Z,20.00
2018-08-22T05:35:18.866Z,19.90
2018-08-22T05:37:46.264Z,21.10
2018-08-22T05:40:13.057Z,21.10
2018-08-22T05:42:39.747Z,21.80
2018-08-22T05:45:06.388Z,21.80
2018-08-22T05:47:33.059Z,21.40
2018-08-22T05:49:59.740Z,21.50
2018-08-22T05:52:27.181Z,19.80
2018-08-22T05:54:53.857Z,19.80
2018-08-22T05:57:20.872Z,20.40
2018-08-22T05:59:47.826Z,22.20
2018-08-22T06:02:15.241Z,24.50
2018-08-22T06:04:41.878Z,24.50
2018-08-22T06:07:08.671Z,25.50
2018-08-22T06:09:35.327Z,25.50
2018-08-22T06:12:02.067Z,24.50
2018-08-22T06:14:28.764Z,25.20
2018-08-22T06:16:56.154Z,27.30
2018-08-22T06:19:22.884Z,27.30
2018-08-22T06:21:49.560Z,27.50
2018-08-22T06:24:16.260Z,28.00
2018-08-22T06:26:42.949Z,30.00
2018-08-22T06:29:09.654Z,30.10
2018-08-22T06:31:36.337Z,29.10
2018-08-22T06:34:03.148Z,31.00
2018-08-22T06:36:29.801Z,31.20
2018-08-22T06:38:56.463Z,32.60
2018-08-22T06:41:23.971Z,32.90
2018-08-22T06:43:50.642Z,32.80
2018-08-22T06:46:17.291Z,30.60
2018-08-22T06:48:44.009Z,31.40
2018-08-22T06:51:10.646Z,33.10
2018-08-22T06:53:37.276Z,33.10
2018-08-22T06:56:03.985Z,32.00
2018-08-22T06:58:31.391Z,31.00
2018-08-22T07:00:58.039Z,31.00
2018-08-22T07:03:24.725Z,31.90
2018-08-22T07:05:51.371Z,32.00
2018-08-22T07:08:18.115Z,31.20
2018-08-22T07:10:44.779Z,29.50
2018-08-22T07:13:11.498Z,31.10
2018-08-22T07:15:38.204Z,29.80
2018-08-22T07:18:05.576Z,30.00
2018-08-22T07:20:32.234Z,30.00
2018-08-22T07:22:58.947Z,30.60
2018-08-22T07:25:26.351Z,30.00
2018-08-22T07:27:53.265Z,30.00
2018-08-22T07:30:19.964Z,31.20
2018-08-22T07:32:46.630Z,30.60
2018-08-22T07:35:13.429Z,31.10
2018-08-22T07:37:40.848Z,31.80
2018-08-22T07:40:07.520Z,31.80
2018-08-22T07:42:34.301Z,31.70
2018-08-22T07:45:01.750Z,31.30
2018-08-22T07:47:29.174Z,31.60
2018-08-22T07:49:55.992Z,31.60
2018-08-22T07:52:22.802Z,31.50
2018-08-22T07:54:49.448Z,31.80
2018-08-22T07:57:16.228Z,31.70
2018-08-22T07:59:42.892Z,30.40
2018-08-22T08:02:09.705Z,29.70
2018-08-22T08:04:36.365Z,29.40
2018-08-22T08:07:03.034Z,28.90
2018-08-22T08:09:29.772Z,29.20
2018-08-22T08:11:57.181Z,30.20
2018-08-22T08:14:23.893Z,30.20
2018-08-22T08:16:50.670Z,30.60
2018-08-22T08:19:17.326Z,30.40
2018-08-22T08:21:44.035Z,31.30
2018-08-22T08:24:10.868Z,31.20
2018-08-22T08:26:37.570Z,31.50
2018-08-22T08:29:04.284Z,30.80
2018-08-22T08:31:31.180Z,31.80
2018-08-22T08:33:57.822Z,31.20
2018-08-22T08:36:24.481Z,30.20
2018-08-22T08:38:51.176Z,29.60
2018-08-22T08:41:17.874Z,29.80
2018-08-22T08:43:44.535Z,29.60
2018-08-22T08:46:12.008Z,29.50
2018-08-22T08:48:38.745Z,29.50
2018-08-22T08:51:05.496Z,30.20
2018-08-22T08:53:32.178Z,30.20
2018-08-22T08:55:59.678Z,29.00
2018-08-22T08:58:27.063Z,28.20
2018-08-22T09:00:54.475Z,27.70
2018-08-22T09:03:21.232Z,27.70
2018-08-22T09:05:48.031Z,27.20
2018-08-22T09:08:14.742Z,26.90
2018-08-22T09:10:41.397Z,27.00
2018-08-22T09:13:08.128Z,26.80
2018-08-22T09:15:35.605Z,27.10
2018-08-22T09:18:02.255Z,27.00
2018-08-22T09:20:28.966Z,26.50
2018-08-22T09:22:55.692Z,26.50
2018-08-22T09:25:22.357Z,26.40
2018-08-22T09:27:49.351Z,25.80
2018-08-22T09:30:16.040Z,25.80
2018-08-22T09:32:42.683Z,25.70
2018-08-22T09:35:09.379Z,25.20
2018-08-22T09:37:36.766Z,25.10
2018-08-22T09:40:03.498Z,25.10
2018-08-22T09:42:30.252Z,24.80
2018-08-22T09:44:56.923Z,25.10
2018-08-22T09:47:23.687Z,25.50
2018-08-22T09:49:51.196Z,25.90
2018-08-22T09:52:17.856Z,26.30
2018-08-22T09:54:44.810Z,26.20
2018-08-22T09:57:11.443Z,26.10
2018-08-22T09:59:38.110Z,25.50
2018-08-22T10:02:05.656Z,24.60
2018-08-22T10:04:32.321Z,24.50
2018-08-22T10:06:59.058Z,23.90
2018-08-22T10:09:25.886Z,23.40
2018-08-22T10:11:53.388Z,23.20
2018-08-22T10:14:20.142Z,23.20
2018-08-22T10:16:47.609Z,24.20
2018-08-22T10:19:14.297Z,24.20
2018-08-22T10:21:41.022Z,24.40
2018-08-22T10:24:08.667Z,24.70
2018-08-22T10:26:35.559Z,24.70
2018-08-22T10:29:02.277Z,24.70
2018-08-22T10:31:29.015Z,24.70
2018-08-22T10:33:55.723Z,24.20
2018-08-22T10:36:22.419Z,24.20
2018-08-22T10:38:49.927Z,24.30
2018-08-22T10:41:17.329Z,24.20
2018-08-22T10:43:44.116Z,24.20
2018-08-22T10:46:10.787Z,24.20
2018-08-22T10:48:37.471Z,24.00
2018-08-22T10:51:04.260Z,24.20
2018-08-22T10:53:30.929Z,24.30
2018-08-22T10:55:57.616Z,24.30
2018-08-22T10:58:24.407Z,24.00
2018-08-22T11:00:51.065Z,23.90
2018-08-22T11:03:17.745Z,23.70
2018-08-22T11:05:45.619Z,24.20
2018-08-22T11:08:13.032Z,24.10
2018-08-22T11:10:39.679Z,24.10
2018-08-22T11:13:07.137Z,24.10
2018-08-22T11:15:33.858Z,24.10
2018-08-22T11:18:00.589Z,24.00
2018-08-22T11:20:27.321Z,23.80
2018-08-22T11:23:06.343Z,23.40
2018-08-22T11:28:49.496Z,23.20
2018-08-22T11:31:28.722Z,23.10
2018-08-22T11:34:07.854Z,23.00
2018-08-22T11:36:34.490Z,22.80
2018-08-22T11:39:01.335Z,22.70
2018-08-22T11:41:28.178Z,22.80
2018-08-22T11:43:54.920Z,23.00
2018-08-22T11:46:21.846Z,23.00
2018-08-22T11:48:49.324Z,22.70
2018-08-22T11:51:16.070Z,22.70
2018-08-22T11:53:42.800Z,22.70
2018-08-22T11:56:09.606Z,22.90
2018-08-22T11:58:36.446Z,23.00
2018-08-22T12:01:03.202Z,23.20
2018-08-22T12:03:30.688Z,23.00
2018-08-22T12:05:57.526Z,23.00
2018-08-22T12:08:24.271Z,22.90
2018-08-22T12:10:50.931Z,23.10
2018-08-22T12:13:17.749Z,23.20
2018-08-22T12:15:44.488Z,23.10
2018-08-22T12:18:11.334Z,22.90
2018-08-22T12:20:38.277Z,22.70
2018-08-22T12:23:05.087Z,22.60
2018-08-22T12:25:31.839Z,22.40
2018-08-22T12:27:59.317Z,23.00
2018-08-22T12:30:26.234Z,23.00
2018-08-22T12:32:53.693Z,22.70
2018-08-22T12:35:21.176Z,22.10
2018-08-22T12:37:47.981Z,22.00
2018-08-22T12:40:14.657Z,21.70
2018-08-22T12:42:41.402Z,21.70
2018-08-22T12:45:08.243Z,21.90
2018-08-22T12:47:35.082Z,21.80
2018-08-22T12:50:01.827Z,21.80
2018-08-22T12:52:28.561Z,21.80
2018-08-22T12:54:55.406Z,21.80
2018-08-22T12:57:22.148Z,21.70
2018-08-22T12:59:48.885Z,21.70
2018-08-22T13:02:15.608Z,21.80
2018-08-22T13:04:43.262Z,21.30
2018-08-22T13:07:09.848Z,21.30
2018-08-22T13:09:36.540Z,21.60
2018-08-22T13:12:03.308Z,21.80
2018-08-22T13:14:30.126Z,22.10
2018-08-22T13:16:56.885Z,21.80
2018-08-22T13:19:23.836Z,21.70
2018-08-22T13:21:50.585Z,21.70
2018-08-22T13:24:19.576Z,21.50
2018-08-22T13:26:46.614Z,21.50
2018-08-22T13:29:14.792Z,21.40
2018-08-22T13:31:41.679Z,21.30
2018-08-22T13:34:08.371Z,21.50
2018-08-22T13:36:35.111Z,21.60
2018-08-22T13:39:01.783Z,21.80
2018-08-22T13:41:29.310Z,21.40
2018-08-22T13:43:55.998Z,21.40
2018-08-22T13:46:22.993Z,21.40
2018-08-22T13:48:49.940Z,21.40
2018-08-22T13:51:16.682Z,21.00
2018-08-22T13:53:43.422Z,20.70
2018-08-22T13:56:10.233Z,20.80
2018-08-22T13:58:36.901Z,21.10
2018-08-22T14:01:03.643Z,21.30
2018-08-22T14:03:30.588Z,21.60
2018-08-22T14:05:57.327Z,21.90
2018-08-22T14:08:24.377Z,21.80
2018-08-22T14:10:51.153Z,21.60
2018-08-22T14:13:17.887Z,21.60
2018-08-22T14:15:44.596Z,21.10
2018-08-22T14:18:14.520Z,21.20
2018-08-22T14:20:42.171Z,20.70
2018-08-22T14:23:09.629Z,20.60
2018-08-22T14:25:37.291Z,20.60
2018-08-22T14:28:04.038Z,20.50
2018-08-22T14:30:31.035Z,20.60
2018-08-22T14:32:57.924Z,20.60
2018-08-22T14:35:25.074Z,20.70
2018-08-22T14:37:52.029Z,20.60
2018-08-22T14:40:18.758Z,20.50
2018-08-22T14:42:45.809Z,20.20
2018-08-22T14:45:12.548Z,20.10
2018-08-22T14:47:39.287Z,19.90
2018-08-22T14:50:06.517Z,19.80
2018-08-22T14:52:34.000Z,19.80
2018-08-22T14:55:00.745Z,19.80
2018-08-22T14:57:28.197Z,19.70
2018-08-22T14:59:55.455Z,19.70
2018-08-22T15:02:22.725Z,19.70
2018-08-22T15:04:49.538Z,19.70
2018-08-22T15:07:16.282Z,19.80
2018-08-22T15:09:43.227Z,19.70
2018-08-22T15:12:09.968Z,19.60
2018-08-22T15:14:36.808Z,19.60
2018-08-22T15:17:03.548Z,19.50
2018-08-22T15:19:30.290Z,19.40
2018-08-22T15:21:57.147Z,19.30
2018-08-22T15:24:23.884Z,19.30
2018-08-22T15:26:50.691Z,19.30
2018-08-22T15:29:18.146Z,19.30
2018-08-22T15:31:44.914Z,19.30
2018-08-22T15:34:11.845Z,19.20
2018-08-22T15:36:38.758Z,19.10
2018-08-22T15:39:05.543Z,19.00
2018-08-22T15:41:32.204Z,19.00
2018-08-22T15:43:59.021Z,19.10
2018-08-22T15:46:26.673Z,19.50
2018-08-22T15:48:53.633Z,19.40
2018-08-22T15:51:20.474Z,19.50
2018-08-22T15:53:47.422Z,19.60
2018-08-22T15:56:15.299Z,19.70
2018-08-22T15:58:42.029Z,19.70
2018-08-22T16:01:08.769Z,19.40
2018-08-22T16:03:50.353Z,19.40
2018-08-22T16:06:16.978Z,19.50
2018-08-22T16:08:44.459Z,19.50
2018-08-22T16:11:11.191Z,19.50
2018-08-22T16:13:37.929Z,19.40
2018-08-22T16:16:04.650Z,19.40
2018-08-22T16:18:32.234Z,19.20
2018-08-22T16:20:58.953Z,19.10
2018-08-22T16:23:25.712Z,19.20
2018-08-22T16:25:52.601Z,19.00
2018-08-22T16:28:19.552Z,19.00
2018-08-22T16:30:56.770Z,19.00
2018-08-22T16:33:13.186Z,19.00
2018-08-22T16:35:39.928Z,18.90
2018-08-22T16:38:06.746Z,18.80
2018-08-22T16:40:34.186Z,18.80
2018-08-22T16:43:00.973Z,18.70
2018-08-22T16:45:27.668Z,18.70
2018-08-22T16:47:55.149Z,18.80
2018-08-22T16:50:22.790Z,18.90
2018-08-22T16:52:50.690Z,18.90
2018-08-22T16:55:18.251Z,18.90
2018-08-22T16:57:45.297Z,18.80
2018-08-22T17:00:12.831Z,18.90
2018-08-22T17:02:40.315Z,18.90
2018-08-22T17:05:07.157Z,18.90
2018-08-22T17:07:33.999Z,18.90
2018-08-22T17:10:00.743Z,18.80
2018-08-22T17:12:27.458Z,18.90
2018-08-22T17:14:54.940Z,18.80
2018-08-22T17:17:21.682Z,18.80
2018-08-22T17:19:48.525Z,18.80
2018-08-22T17:22:15.577Z,18.70
2018-08-22T17:24:42.415Z,18.80
2018-08-22T17:27:09.154Z,18.80
2018-08-22T17:29:36.106Z,18.80
2018-08-22T17:32:02.948Z,18.90
2018-08-22T17:34:29.679Z,18.90
2018-08-22T17:36:56.607Z,18.80
2018-08-22T17:39:24.084Z,18.70
2018-08-22T17:41:50.825Z,18.70
2018-08-22T17:44:17.870Z,18.60
2018-08-22T17:46:45.021Z,18.50
2018-08-22T17:49:12.477Z,18.50
2018-08-22T17:51:39.300Z,18.40
2018-08-22T17:54:06.781Z,18.30
2018-08-22T17:56:33.521Z,18.30
2018-08-22T17:59:00.568Z,18.20
2018-08-22T18:01:27.409Z,18.20
2018-08-22T18:03:54.864Z,18.10
2018-08-22T18:06:21.822Z,18.10
2018-08-22T18:08:48.860Z,18.10
2018-08-22T18:11:15.703Z,18.10
2018-08-22T18:13:42.474Z,18.00
2018-08-22T18:16:09.283Z,18.00
2018-08-22T18:18:36.128Z,17.90
2018-08-22T18:21:02.801Z,18.00
2018-08-22T18:23:29.513Z,17.90
2018-08-22T18:25:56.356Z,17.80
2018-08-22T18:28:23.192Z,17.90
2018-08-22T18:30:49.935Z,17.90
2018-08-22T18:33:16.673Z,17.80
2018-08-22T18:35:43.347Z,17.80
2018-08-22T18:38:10.052Z,17.90
2018-08-22T18:40:36.773Z,17.80
2018-08-22T18:43:04.453Z,17.70
2018-08-22T18:45:31.608Z,17.70
2018-08-22T18:47:58.323Z,17.70
2018-08-22T18:50:26.005Z,17.60
2018-08-22T18:52:52.868Z,17.60
2018-08-22T18:55:19.957Z,17.60
2018-08-22T18:57:46.637Z,17.60
2018-08-22T19:00:13.683Z,17.60
2018-08-22T19:02:40.359Z,17.60
2018-08-22T19:05:07.074Z,17.60
2018-08-22T19:07:34.089Z,17.60
2018-08-22T19:10:01.571Z,17.70
2018-08-22T19:12:28.307Z,17.60
2018-08-22T19:14:55.096Z,17.70
2018-08-22T19:17:21.798Z,17.70
2018-08-22T19:19:48.535Z,17.70
2018-08-22T19:22:15.714Z,17.70
2018-08-22T19:24:42.523Z,17.70
2018-08-22T19:27:09.466Z,17.80
2018-08-22T19:29:36.318Z,17.80
2018-08-22T19:32:03.165Z,17.90
2018-08-22T19:34:29.999Z,17.90
2018-08-22T19:36:56.733Z,17.90
2018-08-22T19:39:23.477Z,17.90
2018-08-22T19:41:50.522Z,17.90
2018-08-22T19:44:17.237Z,17.90
2018-08-22T19:46:44.720Z,18.00
2018-08-22T19:49:12.277Z,18.00
2018-08-22T19:51:39.126Z,18.00
2018-08-22T19:54:05.892Z,18.00
2018-08-22T19:56:33.217Z,18.00
2018-08-22T19:58:59.956Z,17.90
2018-08-22T20:01:26.649Z,17.90
2018-08-22T20:03:53.437Z,18.00
2018-08-22T20:06:20.179Z,18.00
2018-08-22T20:08:47.021Z,18.00
2018-08-22T20:11:13.865Z,18.00
2018-08-22T20:13:40.570Z,18.10
2018-08-22T20:16:07.344Z,18.10
2018-08-22T20:18:34.089Z,18.10
2018-08-22T20:21:00.827Z,18.00
2018-08-22T20:23:27.647Z,18.10
2018-08-22T20:25:54.412Z,18.10
2018-08-22T20:28:21.230Z,18.10
2018-08-22T20:30:48.817Z,18.20
2018-08-22T20:33:15.552Z,18.20
2018-08-22T20:35:42.292Z,18.20
2018-08-22T20:38:09.236Z,18.20
2018-08-22T20:40:36.081Z,18.20
2018-08-22T20:43:02.821Z,18.20
2018-08-22T20:45:29.767Z,18.20
2018-08-22T20:47:56.708Z,18.10
2018-08-22T20:50:24.169Z,18.20
2018-08-22T20:52:51.625Z,18.10
2018-08-22T20:55:19.082Z,18.10
2018-08-22T20:57:47.281Z,18.00
2018-08-22T21:00:15.106Z,18.00
2018-08-22T21:02:42.740Z,18.10
2018-08-22T21:05:10.240Z,18.10
2018-08-22T21:07:36.985Z,18.10
2018-08-22T21:10:04.309Z,18.10
2018-08-22T21:12:31.491Z,18.10
2018-08-22T21:14:58.226Z,18.20
2018-08-22T21:17:25.685Z,18.20
2018-08-22T21:19:52.566Z,18.20
2018-08-22T21:22:19.670Z,18.20
2018-08-22T21:24:46.810Z,18.20
2018-08-22T21:27:13.568Z,18.20
2018-08-22T21:29:40.306Z,18.20
2018-08-22T21:32:07.356Z,18.30
2018-08-22T21:34:34.145Z,18.20
2018-08-22T21:37:02.473Z,18.20
2018-08-22T21:39:29.424Z,18.10
2018-08-22T21:41:56.293Z,18.20
2018-08-22T21:44:22.900Z,18.20
2018-08-22T21:46:49.846Z,18.30
2018-08-22T21:49:16.585Z,18.40
2018-08-22T21:51:43.226Z,18.40
2018-08-22T21:54:10.068Z,18.40
2018-08-22T21:56:36.744Z,18.40
2018-08-22T21:59:03.445Z,18.30
2018-08-22T22:01:30.296Z,18.40
2018-08-22T22:03:57.026Z,18.30
2018-08-22T22:06:23.732Z,18.40
2018-08-22T22:08:50.487Z,18.40
2018-08-22T22:11:17.888Z,18.40
2018-08-22T22:13:44.809Z,18.40
2018-08-22T22:16:11.523Z,18.30
2018-08-22T22:18:39.008Z,18.50
2018-08-22T22:21:05.847Z,18.50
2018-08-22T22:23:32.796Z,18.50
2018-08-22T22:25:59.520Z,18.50
2018-08-22T22:28:27.097Z,18.50
2018-08-22T22:30:53.856Z,18.50
2018-08-22T22:33:20.677Z,18.60
2018-08-22T22:35:47.398Z,18.60
2018-08-22T22:38:14.873Z,18.70
2018-08-22T22:40:41.613Z,18.80
2018-08-22T22:43:08.355Z,18.70
2018-08-22T22:45:35.077Z,18.70
2018-08-22T22:48:02.457Z,18.70
2018-08-22T22:50:29.193Z,18.70
2018-08-22T22:52:55.909Z,18.70
2018-08-22T22:55:23.596Z,18.70
2018-08-22T22:57:50.437Z,18.70
2018-08-22T23:00:17.177Z,18.70
2018-08-22T23:02:44.119Z,18.70
2018-08-22T23:05:10.864Z,18.60
2018-08-22T23:07:37.514Z,18.70
2018-08-22T23:10:04.442Z,18.70
2018-08-22T23:12:31.280Z,18.70
2018-08-22T23:14:58.026Z,18.60
2018-08-22T23:17:25.075Z,18.70
2018-08-22T23:19:51.919Z,18.50
2018-08-22T23:22:18.761Z,18.50
2018-08-22T23:24:45.501Z,18.50
2018-08-22T23:27:12.241Z,18.50
2018-08-22T23:29:39.085Z,18.40
2018-08-22T23:32:05.928Z,18.50
2018-08-22T23:34:32.667Z,18.60
2018-08-22T23:36:59.514Z,18.60
2018-08-22T23:39:26.248Z,18.60
2018-08-22T23:41:52.974Z,18.60
2018-08-22T23:44:20.654Z,18.60
2018-08-22T23:46:47.376Z,18.50
2018-08-22T23:49:14.851Z,18.50
2018-08-22T23:51:41.590Z,18.50
2018-08-22T23:54:08.329Z,18.50
2018-08-22T23:56:35.044Z,18.50
2018-08-22T23:59:02.630Z,18.40
